createdAt,value
2023-03-22T05:00:42.929Z,4.84
2023-03-22T05:01:42.891Z,4.80
2023-03-22T05:02:42.906Z,4.73
2023-03-22T05:03:42.805Z,4.69
2023-03-22T05:04:42.797Z,4.69
2023-03-22T05:05:42.751Z,4.70
2023-03-22T05:06:42.822Z,4.75
2023-03-22T05:07:42.729Z,4.75
2023-03-22T05:08:42.751Z,4.73
2023-03-22T05:09:42.711Z,4.70
2023-03-22T05:10:42.713Z,4.67
2023-03-22T05:11:42.688Z,4.67
2023-03-22T05:12:42.882Z,4.73
2023-03-22T05:13:42.699Z,4.78
2023-03-22T05:14:42.767Z,4.82
2023-03-22T05:15:49.735Z,4.80
2023-03-22T05:16:42.640Z,4.82
2023-03-22T05:17:42.605Z,4.80
2023-03-22T05:18:42.689Z,4.77
2023-03-22T05:19:42.583Z,4.72
2023-03-22T05:20:42.708Z,4.66
2023-03-22T05:21:42.578Z,4.60
2023-03-22T05:22:42.586Z,4.59
2023-03-22T05:23:42.555Z,4.54
2023-03-22T05:24:42.555Z,4.51
2023-03-22T05:25:42.586Z,4.50
2023-03-22T05:26:42.525Z,4.48
2023-03-22T05:27:42.501Z,4.45
2023-03-22T05:28:42.525Z,4.45
2023-03-22T05:29:42.458Z,4.42
2023-03-22T05:30:42.506Z,4.37
2023-03-22T05:31:42.499Z,4.42
2023-03-22T05:32:42.526Z,4.44
2023-03-22T05:33:42.405Z,4.48
2023-03-22T05:34:42.415Z,4.51
2023-03-22T05:35:42.516Z,4.52
2023-03-22T05:36:42.460Z,4.58
2023-03-22T05:37:42.361Z,4.58
2023-03-22T05:38:42.379Z,4.62
2023-03-22T05:39:42.347Z,4.66
2023-03-22T05:40:42.383Z,4.67
2023-03-22T05:41:42.357Z,4.69
2023-03-22T05:42:42.333Z,4.67
2023-03-22T05:43:42.283Z,4.67
2023-03-22T05:44:42.304Z,4.69
2023-03-22T05:45:42.263Z,4.69
2023-03-22T05:46:42.337Z,4.72
2023-03-22T05:47:42.326Z,4.80
2023-03-22T05:48:42.256Z,4.82
2023-03-22T05:49:42.200Z,4.84
2023-03-22T05:50:42.254Z,4.85
2023-03-22T05:51:42.239Z,4.84
2023-03-22T05:52:42.216Z,4.82
2023-03-22T05:53:42.406Z,4.84
2023-03-22T05:54:42.172Z,4.86
2023-03-22T05:55:42.137Z,4.88
2023-03-22T05:56:42.158Z,4.88
2023-03-22T05:57:42.134Z,4.88
2023-03-22T05:58:42.106Z,4.85
2023-03-22T05:59:42.138Z,4.86
2023-03-22T06:00:42.389Z,4.88
2023-03-22T06:01:42.092Z,4.91
2023-03-22T06:02:42.152Z,4.94
2023-03-22T06:03:42.041Z,4.97
2023-03-22T06:04:42.064Z,4.99
2023-03-22T06:05:42.014Z,5.00
2023-03-22T06:06:42.080Z,5.00
2023-03-22T06:07:42.011Z,5.04
2023-03-22T06:08:42.016Z,5.07
2023-03-22T06:09:41.964Z,5.09
2023-03-22T06:10:42.458Z,5.09
2023-03-22T06:11:41.963Z,5.10
2023-03-22T06:12:42.109Z,5.13
2023-03-22T06:13:41.943Z,5.13
2023-03-22T06:14:41.924Z,5.10
2023-03-22T06:15:41.887Z,5.13
2023-03-22T06:16:41.932Z,5.18
2023-03-22T06:17:41.877Z,5.22
2023-03-22T06:18:42.040Z,5.24
2023-03-22T06:19:41.842Z,5.27
2023-03-22T06:20:42.331Z,5.30
2023-03-22T06:21:41.801Z,5.36
2023-03-22T06:22:41.825Z,5.42
2023-03-22T06:23:41.782Z,5.45
2023-03-22T06:24:41.863Z,5.48
2023-03-22T06:25:41.782Z,5.49
2023-03-22T06:26:41.761Z,5.51
2023-03-22T06:27:41.756Z,5.56
2023-03-22T06:28:41.736Z,5.63
2023-03-22T06:29:41.721Z,5.68
2023-03-22T06:30:42.252Z,5.72
2023-03-22T06:31:41.714Z,5.76
2023-03-22T06:32:41.671Z,5.81
2023-03-22T06:33:41.662Z,5.86
2023-03-22T06:34:41.630Z,5.93
2023-03-22T06:35:41.715Z,6.04
2023-03-22T06:36:41.612Z,6.49
2023-03-22T06:37:41.613Z,7.09
2023-03-22T06:38:41.596Z,7.63
2023-03-22T06:39:41.582Z,7.97
2023-03-22T06:40:41.852Z,8.30
2023-03-22T06:41:41.654Z,8.50
2023-03-22T06:42:41.547Z,8.66
2023-03-22T06:43:41.563Z,8.87
2023-03-22T06:44:41.535Z,8.99
2023-03-22T06:45:41.557Z,9.17
2023-03-22T06:46:41.491Z,9.53
2023-03-22T06:47:41.818Z,9.56
2023-03-22T06:48:41.447Z,9.78
2023-03-22T06:49:41.464Z,10.14
2023-03-22T06:50:44.001Z,10.47
2023-03-22T06:51:41.440Z,10.59
2023-03-22T06:52:41.401Z,10.55
2023-03-22T06:53:41.466Z,10.70
2023-03-22T06:54:41.383Z,10.79
2023-03-22T06:55:41.394Z,10.71
2023-03-22T06:56:41.359Z,10.91
2023-03-22T06:57:41.338Z,11.19
2023-03-22T06:58:41.312Z,11.43
2023-03-22T06:59:41.375Z,11.76
2023-03-22T07:00:41.699Z,12.29
2023-03-22T07:01:41.370Z,12.64
2023-03-22T07:02:41.271Z,12.71
2023-03-22T07:03:41.258Z,12.82
2023-03-22T07:04:41.297Z,12.89
2023-03-22T07:05:41.322Z,13.07
2023-03-22T07:06:41.229Z,13.41
2023-03-22T07:07:41.292Z,13.64
2023-03-22T07:08:41.197Z,13.97
2023-03-22T07:09:41.199Z,14.00
2023-03-22T07:10:41.483Z,13.81
2023-03-22T07:11:41.250Z,13.69
2023-03-22T07:12:41.158Z,13.59
2023-03-22T07:13:41.148Z,13.60
2023-03-22T07:14:41.117Z,13.57
2023-03-22T07:15:41.204Z,13.51
2023-03-22T07:16:41.146Z,13.59
2023-03-22T07:17:41.097Z,13.49
2023-03-22T07:18:41.060Z,13.54
2023-03-22T07:19:41.059Z,13.63
2023-03-22T07:20:41.208Z,13.84
2023-03-22T07:21:41.057Z,13.70
2023-03-22T07:22:41.084Z,13.30
2023-03-22T07:23:41.018Z,13.17
2023-03-22T07:24:53.804Z,13.32
2023-03-22T07:25:42.008Z,13.38
2023-03-22T07:26:40.963Z,13.55
2023-03-22T07:27:40.966Z,13.95
2023-03-22T07:28:40.966Z,13.95
2023-03-22T07:29:40.937Z,13.69
2023-03-22T07:30:41.294Z,13.67
2023-03-22T07:31:40.918Z,13.82
2023-03-22T07:32:40.877Z,14.03
2023-03-22T07:33:40.889Z,14.24
2023-03-22T07:34:40.857Z,14.32
2023-03-22T07:35:40.912Z,14.40
2023-03-22T07:36:40.866Z,14.54
2023-03-22T07:37:40.847Z,14.72
2023-03-22T07:38:40.808Z,15.02
2023-03-22T07:39:40.807Z,15.31
2023-03-22T07:40:41.068Z,15.49
2023-03-22T07:41:40.891Z,15.82
2023-03-22T07:42:40.790Z,16.09
2023-03-22T07:43:53.154Z,16.38
2023-03-22T07:44:41.737Z,16.73
2023-03-22T07:45:40.809Z,16.88
2023-03-22T07:46:40.771Z,17.04
2023-03-22T07:47:41.610Z,17.26
2023-03-22T07:48:40.679Z,17.44
2023-03-22T07:49:40.691Z,17.16
2023-03-22T07:50:40.968Z,16.85
2023-03-22T07:51:40.778Z,16.73
2023-03-22T07:52:40.630Z,16.48
2023-03-22T07:53:40.648Z,16.30
2023-03-22T07:54:40.599Z,16.46
2023-03-22T07:55:40.609Z,16.56
2023-03-22T07:56:40.589Z,16.76
2023-03-22T07:57:40.646Z,16.79
2023-03-22T07:58:40.612Z,16.88
2023-03-22T07:59:40.575Z,17.04
2023-03-22T08:00:40.825Z,17.19
2023-03-22T08:01:40.566Z,17.25
2023-03-22T08:02:40.552Z,16.88
2023-03-22T08:03:40.569Z,17.04
2023-03-22T08:04:40.474Z,17.03
2023-03-22T08:05:40.829Z,17.25
2023-03-22T08:06:40.467Z,17.51
2023-03-22T08:07:40.462Z,17.59
2023-03-22T08:08:40.434Z,17.49
2023-03-22T08:09:40.504Z,17.15
2023-03-22T08:10:40.654Z,16.66
2023-03-22T08:11:40.394Z,16.64
2023-03-22T08:12:40.381Z,16.78
2023-03-22T08:13:40.385Z,17.01
2023-03-22T08:14:40.366Z,17.14
2023-03-22T08:15:40.854Z,17.37
2023-03-22T08:16:40.365Z,17.30
2023-03-22T08:17:40.342Z,17.23
2023-03-22T08:18:40.301Z,17.22
2023-03-22T08:19:40.321Z,17.30
2023-03-22T08:20:40.454Z,17.48
2023-03-22T08:21:40.270Z,17.23
2023-03-22T08:22:40.247Z,16.88
2023-03-22T08:23:42.034Z,16.64
2023-03-22T08:24:40.226Z,16.39
2023-03-22T08:25:40.238Z,16.27
2023-03-22T08:26:40.262Z,16.09
2023-03-22T08:27:40.199Z,15.76
2023-03-22T08:28:40.168Z,15.59
2023-03-22T08:29:40.169Z,15.31
2023-03-22T08:30:40.453Z,15.20
2023-03-22T08:31:40.170Z,15.06
2023-03-22T08:32:40.181Z,14.84
2023-03-22T08:33:40.128Z,14.70
2023-03-22T08:34:40.098Z,14.50
2023-03-22T08:35:40.281Z,14.35
2023-03-22T08:36:40.058Z,14.21
2023-03-22T08:37:40.097Z,14.14
2023-03-22T08:38:40.112Z,14.04
2023-03-22T08:39:40.038Z,13.99
2023-03-22T08:40:40.059Z,13.96
2023-03-22T08:41:40.016Z,13.96
2023-03-22T08:42:39.987Z,14.02
2023-03-22T08:43:40.007Z,13.99
2023-03-22T08:44:39.997Z,14.04
2023-03-22T08:45:40.303Z,14.02
2023-03-22T08:46:39.926Z,14.12
2023-03-22T08:47:39.967Z,14.25
2023-03-22T08:48:39.905Z,14.33
2023-03-22T08:49:39.925Z,14.40
2023-03-22T08:50:39.931Z,14.43
2023-03-22T08:51:39.894Z,14.43
2023-03-22T08:52:39.844Z,14.50
2023-03-22T08:53:39.864Z,14.50
2023-03-22T08:54:39.856Z,14.52
2023-03-22T08:55:40.165Z,14.58
2023-03-22T08:56:39.897Z,14.69
2023-03-22T08:57:39.820Z,14.77
2023-03-22T08:58:39.773Z,14.80
2023-03-22T08:59:39.793Z,14.83
2023-03-22T09:00:48.627Z,14.92
2023-03-22T09:01:40.969Z,15.02
2023-03-22T09:02:39.723Z,15.06
2023-03-22T09:03:39.753Z,15.09
2023-03-22T09:04:39.871Z,15.16
2023-03-22T09:05:39.899Z,15.21
2023-03-22T09:06:39.670Z,15.20
2023-03-22T09:07:40.121Z,15.23
2023-03-22T09:08:39.667Z,15.20
2023-03-22T09:09:39.665Z,15.25
2023-03-22T09:10:39.630Z,15.28
2023-03-22T09:11:39.638Z,15.27
2023-03-22T09:12:39.607Z,15.23
2023-03-22T09:13:39.653Z,15.27
2023-03-22T09:14:39.585Z,15.32
2023-03-22T09:15:40.039Z,15.39
2023-03-22T09:16:39.629Z,15.46
2023-03-22T09:17:39.574Z,15.51
2023-03-22T09:18:39.523Z,15.50
2023-03-22T09:19:39.568Z,15.44
2023-03-22T09:20:39.863Z,15.56
2023-03-22T09:21:39.511Z,15.59
2023-03-22T09:22:39.467Z,15.60
2023-03-22T09:23:39.477Z,15.62
2023-03-22T09:24:39.441Z,15.62
2023-03-22T09:25:39.767Z,15.68
2023-03-22T09:26:39.414Z,15.68
2023-03-22T09:27:39.439Z,15.74
2023-03-22T09:28:39.417Z,15.80
2023-03-22T09:29:39.406Z,15.83
2023-03-22T09:30:39.715Z,15.86
2023-03-22T09:31:39.525Z,15.89
2023-03-22T09:32:39.325Z,15.94
2023-03-22T09:33:39.352Z,15.94
2023-03-22T09:34:39.314Z,15.96
2023-03-22T09:35:39.771Z,15.93
2023-03-22T09:36:39.283Z,15.94
2023-03-22T09:37:39.352Z,15.93
2023-03-22T09:38:39.288Z,16.04
2023-03-22T09:39:39.277Z,16.02
2023-03-22T09:40:39.233Z,16.01
2023-03-22T09:41:39.235Z,16.02
2023-03-22T09:42:39.193Z,16.11
2023-03-22T09:43:39.254Z,16.09
2023-03-22T09:44:39.183Z,16.20
2023-03-22T09:45:39.513Z,16.24
2023-03-22T09:46:39.216Z,16.15
2023-03-22T09:47:44.711Z,16.21
2023-03-22T09:48:40.150Z,16.17
2023-03-22T09:49:52.625Z,16.21
2023-03-22T09:50:40.330Z,16.24
2023-03-22T09:51:39.118Z,16.31
2023-03-22T09:52:39.077Z,16.45
2023-03-22T09:53:39.091Z,16.56
2023-03-22T09:54:39.051Z,16.64
2023-03-22T09:55:39.365Z,16.68
2023-03-22T09:56:39.070Z,16.73
2023-03-22T09:57:39.056Z,16.78
2023-03-22T09:58:39.015Z,16.61
2023-03-22T09:59:39.001Z,16.43
2023-03-22T10:00:39.170Z,16.35
2023-03-22T10:01:39.296Z,16.41
2023-03-22T10:02:39.001Z,16.34
2023-03-22T10:03:38.939Z,16.39
2023-03-22T10:04:38.951Z,16.43
2023-03-22T10:05:39.283Z,16.49
2023-03-22T10:06:38.975Z,16.61
2023-03-22T10:07:38.910Z,16.71
2023-03-22T10:08:38.884Z,16.76
2023-03-22T10:09:38.899Z,16.83
2023-03-22T10:10:38.850Z,16.79
2023-03-22T10:11:38.848Z,16.79
2023-03-22T10:12:38.898Z,16.81
2023-03-22T10:13:38.819Z,16.88
2023-03-22T10:14:38.787Z,17.06
2023-03-22T10:15:39.107Z,17.12
2023-03-22T10:16:38.781Z,17.16
2023-03-22T10:17:38.791Z,17.25
2023-03-22T10:18:38.777Z,17.36
2023-03-22T10:19:38.746Z,17.41
2023-03-22T10:20:38.761Z,17.46
2023-03-22T10:21:38.748Z,17.49
2023-03-22T10:22:38.692Z,17.52
2023-03-22T10:23:38.695Z,17.55
2023-03-22T10:24:38.710Z,17.59
2023-03-22T10:25:39.084Z,17.66
2023-03-22T10:26:38.640Z,17.64
2023-03-22T10:27:38.646Z,17.66
2023-03-22T10:28:38.609Z,17.68
2023-03-22T10:29:38.630Z,17.72
2023-03-22T10:30:39.093Z,17.84
2023-03-22T10:31:38.602Z,17.84
2023-03-22T10:32:47.995Z,17.77
2023-03-22T10:33:39.556Z,17.82
2023-03-22T10:34:38.536Z,17.82
2023-03-22T10:35:38.962Z,17.86
2023-03-22T10:36:38.593Z,17.96
2023-03-22T10:37:38.514Z,17.99
2023-03-22T10:38:38.467Z,17.96
2023-03-22T10:39:39.977Z,17.96
2023-03-22T10:40:38.457Z,18.00
2023-03-22T10:41:38.468Z,17.97
2023-03-22T10:42:38.480Z,17.96
2023-03-22T10:43:38.537Z,17.95
2023-03-22T10:44:38.404Z,17.95
2023-03-22T10:45:38.948Z,17.93
2023-03-22T10:46:38.446Z,17.86
2023-03-22T10:47:38.364Z,17.75
2023-03-22T10:48:38.405Z,17.71
2023-03-22T10:49:38.344Z,17.71
2023-03-22T10:50:38.338Z,17.72
2023-03-22T10:51:38.312Z,17.72
2023-03-22T10:52:38.327Z,17.87
2023-03-22T10:53:38.280Z,17.95
2023-03-22T10:54:38.337Z,17.96
2023-03-22T10:55:38.574Z,17.99
2023-03-22T10:56:38.267Z,18.02
2023-03-22T10:57:38.236Z,18.10
2023-03-22T10:58:38.336Z,18.15
2023-03-22T10:59:38.209Z,18.23
2023-03-22T11:00:41.858Z,18.27
2023-03-22T11:01:38.327Z,18.32
2023-03-22T11:02:38.532Z,18.36
2023-03-22T11:03:38.162Z,18.47
2023-03-22T11:04:38.153Z,18.47
2023-03-22T11:05:38.517Z,18.39
2023-03-22T11:06:38.204Z,18.50
2023-03-22T11:07:38.106Z,18.62
2023-03-22T11:08:38.114Z,18.72
2023-03-22T11:09:38.075Z,18.75
2023-03-22T11:10:38.127Z,18.81
2023-03-22T11:11:38.047Z,18.76
2023-03-22T11:12:40.003Z,18.78
2023-03-22T11:13:38.025Z,18.78
2023-03-22T11:14:38.023Z,18.87
2023-03-22T11:15:45.009Z,18.99
2023-03-22T11:16:38.076Z,19.07
2023-03-22T11:17:37.970Z,19.14
2023-03-22T11:18:38.054Z,19.22
2023-03-22T11:19:37.959Z,19.22
2023-03-22T11:20:38.366Z,19.29
2023-03-22T11:21:37.923Z,19.25
2023-03-22T11:22:37.937Z,19.26
2023-03-22T11:23:37.886Z,19.36
2023-03-22T11:24:37.958Z,19.46
2023-03-22T11:25:37.893Z,19.55
2023-03-22T11:26:40.789Z,19.48
2023-03-22T11:27:37.844Z,19.50
2023-03-22T11:28:37.854Z,19.46
2023-03-22T11:29:37.847Z,19.32
2023-03-22T11:30:42.299Z,19.33
2023-03-22T11:31:37.840Z,19.41
2023-03-22T11:32:38.146Z,19.50
2023-03-22T11:33:37.795Z,19.58
2023-03-22T11:34:37.845Z,19.73
2023-03-22T11:35:37.845Z,19.83
2023-03-22T11:36:37.759Z,19.92
2023-03-22T11:37:37.707Z,19.94
2023-03-22T11:38:37.822Z,19.78
2023-03-22T11:39:37.689Z,19.69
2023-03-22T11:40:37.754Z,19.78
2023-03-22T11:41:37.680Z,19.83
2023-03-22T11:42:37.756Z,19.84
2023-03-22T11:43:37.662Z,19.74
2023-03-22T11:44:37.836Z,19.77
2023-03-22T11:45:37.687Z,19.76
2023-03-22T11:46:37.728Z,19.81
2023-03-22T11:47:37.617Z,19.88
2023-03-22T11:48:37.707Z,19.95
2023-03-22T11:49:37.560Z,19.96
2023-03-22T11:50:37.812Z,19.95
2023-03-22T11:51:37.528Z,19.98
2023-03-22T11:52:37.540Z,19.94
2023-03-22T11:53:37.519Z,19.94
2023-03-22T11:54:37.518Z,19.88
2023-03-22T11:55:37.563Z,19.81
2023-03-22T11:56:37.495Z,19.74
2023-03-22T11:57:37.514Z,19.83
2023-03-22T11:58:37.520Z,19.95
2023-03-22T11:59:37.431Z,20.03
2023-03-22T12:00:37.442Z,20.06
2023-03-22T12:01:37.460Z,20.26
2023-03-22T12:02:37.544Z,20.41
2023-03-22T12:03:39.071Z,20.59
2023-03-22T12:04:37.400Z,20.69
2023-03-22T12:05:37.410Z,20.73
2023-03-22T12:06:37.398Z,20.76
2023-03-22T12:07:37.680Z,20.82
2023-03-22T12:08:37.354Z,20.95
2023-03-22T12:09:37.309Z,21.06
2023-03-22T12:10:37.311Z,20.89
2023-03-22T12:11:37.346Z,20.95
2023-03-22T12:12:37.281Z,21.03
2023-03-22T12:13:37.264Z,21.03
2023-03-22T12:14:37.265Z,21.07
2023-03-22T12:15:37.346Z,20.97
2023-03-22T12:16:37.284Z,20.80
2023-03-22T12:17:37.258Z,20.62
2023-03-22T12:18:37.211Z,20.54
2023-03-22T12:19:37.170Z,20.35
2023-03-22T12:20:37.193Z,20.23
2023-03-22T12:21:37.145Z,20.29
2023-03-22T12:22:37.587Z,20.33
2023-03-22T12:23:37.347Z,20.35
2023-03-22T12:24:37.185Z,20.17
2023-03-22T12:25:37.250Z,20.20
2023-03-22T12:26:37.102Z,20.26
2023-03-22T12:27:37.078Z,20.36
2023-03-22T12:28:37.081Z,20.57
2023-03-22T12:29:37.122Z,20.74
2023-03-22T12:30:37.062Z,20.92
2023-03-22T12:31:37.047Z,21.04
2023-03-22T12:32:37.133Z,20.99
2023-03-22T12:33:37.007Z,20.97
2023-03-22T12:34:37.000Z,20.91
2023-03-22T12:35:37.100Z,20.89
2023-03-22T12:36:36.983Z,20.97
2023-03-22T12:37:36.944Z,21.03
2023-03-22T12:38:36.956Z,20.99
2023-03-22T12:39:36.935Z,20.87
2023-03-22T12:40:36.980Z,20.80
2023-03-22T12:41:36.976Z,20.76
2023-03-22T12:42:40.653Z,20.51
2023-03-22T12:43:37.884Z,20.31
2023-03-22T12:44:36.910Z,20.20
2023-03-22T12:45:36.861Z,20.20
2023-03-22T12:46:37.021Z,20.36
2023-03-22T12:47:36.883Z,20.55
2023-03-22T12:48:36.989Z,20.72
2023-03-22T12:49:36.824Z,20.77
2023-03-22T12:50:36.817Z,20.76
2023-03-22T12:51:36.783Z,20.74
2023-03-22T12:52:45.089Z,20.73
2023-03-22T12:53:37.750Z,20.80
2023-03-22T12:54:36.752Z,20.74
2023-03-22T12:55:36.826Z,20.73
2023-03-22T12:56:36.741Z,20.80
2023-03-22T12:57:37.083Z,20.97
2023-03-22T12:58:36.713Z,21.04
2023-03-22T12:59:36.663Z,21.04
2023-03-22T13:00:36.792Z,21.14
2023-03-22T13:01:36.780Z,21.31
2023-03-22T13:02:36.778Z,21.42
2023-03-22T13:03:36.775Z,21.59
2023-03-22T13:04:36.682Z,21.88
2023-03-22T13:05:36.593Z,21.99
2023-03-22T13:06:36.593Z,22.17
2023-03-22T13:07:36.638Z,22.20
2023-03-22T13:08:36.573Z,22.24
2023-03-22T13:09:36.550Z,22.33
2023-03-22T13:10:36.561Z,22.10
2023-03-22T13:11:36.522Z,22.00
2023-03-22T13:12:36.525Z,21.86
2023-03-22T13:13:36.554Z,21.83
2023-03-22T13:14:36.493Z,21.72
2023-03-22T13:15:41.732Z,21.50
2023-03-22T13:16:37.659Z,21.38
2023-03-22T13:17:36.475Z,21.22
2023-03-22T13:18:36.497Z,21.16
2023-03-22T13:19:36.472Z,21.19
2023-03-22T13:20:36.454Z,21.14
2023-03-22T13:21:37.333Z,21.10
2023-03-22T13:22:36.444Z,20.98
2023-03-22T13:23:36.360Z,21.09
2023-03-22T13:24:36.364Z,21.28
2023-03-22T13:25:36.375Z,21.42
2023-03-22T13:26:36.355Z,21.53
2023-03-22T13:27:36.301Z,21.61
2023-03-22T13:28:36.316Z,21.61
2023-03-22T13:29:36.276Z,21.72
2023-03-22T13:30:36.366Z,21.82
2023-03-22T13:31:36.306Z,21.86
2023-03-22T13:32:36.339Z,21.77
2023-03-22T13:33:36.233Z,21.69
2023-03-22T13:34:36.229Z,21.71
2023-03-22T13:35:36.220Z,21.74
2023-03-22T13:36:36.250Z,21.79
2023-03-22T13:37:36.187Z,21.77
2023-03-22T13:38:36.169Z,21.68
2023-03-22T13:39:36.163Z,21.80
2023-03-22T13:40:36.191Z,21.90
2023-03-22T13:41:36.134Z,22.00
2023-03-22T13:42:36.123Z,21.92
2023-03-22T13:43:36.086Z,22.00
2023-03-22T13:44:36.112Z,21.88
2023-03-22T13:45:36.101Z,21.88
2023-03-22T13:46:36.172Z,22.00
2023-03-22T13:47:36.161Z,22.09
2023-03-22T13:48:36.228Z,22.12
2023-03-22T13:49:36.012Z,22.14
2023-03-22T13:50:36.016Z,22.00
2023-03-22T13:51:35.983Z,21.80
2023-03-22T13:52:36.047Z,21.61
2023-03-22T13:53:35.965Z,21.54
2023-03-22T13:54:35.969Z,21.56
2023-03-22T13:55:35.981Z,21.59
2023-03-22T13:56:35.943Z,21.65
2023-03-22T13:57:35.901Z,21.64
2023-03-22T13:58:35.988Z,21.64
2023-03-22T13:59:35.884Z,21.64
2023-03-22T14:00:35.889Z,21.62
2023-03-22T14:01:35.920Z,21.62
2023-03-22T14:02:35.983Z,21.69
2023-03-22T14:03:36.006Z,21.64
2023-03-22T14:04:35.907Z,21.47
2023-03-22T14:05:35.813Z,21.46
2023-03-22T14:06:35.809Z,21.46
2023-03-22T14:07:35.778Z,21.44
2023-03-22T14:08:35.791Z,21.44
2023-03-22T14:09:35.748Z,21.56
2023-03-22T14:10:35.808Z,21.72
2023-03-22T14:11:35.724Z,21.77
2023-03-22T14:12:35.729Z,21.92
2023-03-22T14:13:35.713Z,22.02
2023-03-22T14:14:35.722Z,22.12
2023-03-22T14:15:35.801Z,22.15
2023-03-22T14:16:35.699Z,22.12
2023-03-22T14:17:35.717Z,22.15
2023-03-22T14:18:35.658Z,22.10
2023-03-22T14:19:35.619Z,22.03
2023-03-22T14:20:35.649Z,22.03
2023-03-22T14:21:35.650Z,22.00
